createdAt,value
2023-04-17T00:01:15.929Z,48.40
2023-04-17T00:03:44.813Z,45.33
2023-04-17T00:06:16.388Z,45.40
2023-04-17T00:08:44.611Z,44.47
2023-04-17T00:11:12.683Z,43.65
2023-04-17T00:13:40.955Z,48.25
2023-04-17T00:16:10.723Z,42.45
2023-04-17T00:18:38.830Z,42.55
2023-04-17T00:21:07.765Z,40.70
2023-04-17T00:23:37.224Z,40.08
2023-04-17T00:26:05.314Z,48.20
2023-04-17T00:28:33.924Z,47.45
2023-04-17T00:31:01.970Z,44.78
2023-04-17T00:33:29.980Z,42.75
2023-04-17T00:35:58.053Z,38.60
2023-04-17T00:38:26.147Z,44.05
2023-04-17T00:40:55.765Z,43.08
2023-04-17T00:43:23.792Z,44.72
2023-04-17T00:45:52.621Z,43.15
2023-04-17T00:48:24.154Z,42.72
2023-04-17T00:50:52.511Z,44.47
2023-04-17T00:53:20.888Z,44.88
2023-04-17T00:55:51.765Z,50.60
2023-04-17T00:58:21.256Z,41.20
2023-04-17T01:00:50.710Z,47.65
2023-04-17T01:03:19.040Z,47.05
2023-04-17T01:05:51.099Z,45.60
2023-04-17T01:08:19.517Z,41.58
2023-04-17T01:10:48.150Z,46.80
2023-04-17T01:13:16.185Z,50.60
2023-04-17T01:15:47.066Z,45.70
2023-04-17T01:18:15.208Z,46.25
2023-04-17T01:20:43.307Z,50.05
2023-04-17T01:23:11.607Z,45.67
2023-04-17T01:25:42.308Z,46.53
2023-04-17T01:28:10.963Z,50.40
2023-04-17T01:30:39.044Z,47.83
2023-04-17T01:33:09.421Z,45.05
2023-04-17T01:35:37.829Z,47.47
2023-04-17T01:38:05.849Z,45.33
2023-04-17T01:40:34.001Z,43.67
2023-04-17T01:43:03.389Z,42.28
2023-04-17T01:45:31.430Z,44.90
2023-04-17T01:48:01.024Z,44.92
2023-04-17T01:50:29.213Z,49.22
2023-04-17T01:52:57.281Z,46.63
2023-04-17T01:55:25.406Z,43.25
2023-04-17T01:57:53.454Z,44.15
2023-04-17T02:00:23.719Z,38.88
2023-04-17T02:02:52.002Z,44.58
2023-04-17T02:05:20.923Z,42.00
2023-04-17T02:07:50.965Z,45.75
2023-04-17T02:10:20.048Z,44.88
2023-04-17T02:12:48.143Z,42.05
2023-04-17T02:15:16.429Z,46.30
2023-04-17T02:17:47.181Z,45.22
2023-04-17T02:20:15.503Z,44.67
2023-04-17T02:22:43.577Z,45.08
2023-04-17T02:25:11.755Z,44.90
2023-04-17T02:27:39.830Z,53.20
2023-04-17T02:30:09.858Z,46.40
2023-04-17T02:32:37.922Z,63.83
2023-04-17T02:35:09.488Z,54.38
2023-04-17T02:37:37.794Z,50.55
2023-04-17T02:40:08.020Z,54.10
2023-04-17T02:42:36.045Z,57.55
2023-04-17T02:45:05.297Z,51.75
2023-04-17T02:47:33.639Z,52.38
2023-04-17T02:50:02.797Z,55.60
2023-04-17T02:52:37.544Z,53.97
2023-04-17T02:55:06.945Z,56.08
2023-04-17T02:57:35.350Z,55.47
2023-04-17T03:00:07.893Z,51.53
2023-04-17T03:02:36.468Z,56.45
2023-04-17T03:05:04.833Z,52.90
2023-04-17T03:07:32.925Z,51.25
2023-04-17T03:10:02.890Z,52.58
2023-04-17T03:12:32.005Z,48.28
2023-04-17T03:15:01.332Z,53.08
2023-04-17T03:17:29.926Z,49.33
2023-04-17T03:19:58.515Z,53.28
2023-04-17T03:22:26.591Z,61.38
2023-04-17T03:24:54.695Z,52.58
2023-04-17T03:27:27.144Z,51.00
2023-04-17T03:29:56.288Z,47.20
2023-04-17T03:32:26.586Z,51.28
2023-04-17T03:34:54.610Z,57.15
2023-04-17T03:37:22.702Z,49.63
2023-04-17T03:39:50.870Z,47.50
2023-04-17T03:42:19.100Z,49.10
2023-04-17T03:44:48.580Z,53.05
2023-04-17T03:47:16.978Z,50.92
2023-04-17T03:49:45.113Z,46.47
2023-04-17T03:52:14.094Z,50.47
2023-04-17T03:54:43.186Z,49.47
2023-04-17T03:57:13.585Z,58.38
2023-04-17T03:59:41.677Z,51.20
2023-04-17T04:02:11.208Z,53.30
2023-04-17T04:04:40.817Z,61.92
2023-04-17T04:07:13.309Z,55.42
2023-04-17T04:09:41.419Z,57.50
2023-04-17T04:12:10.544Z,62.70
2023-04-17T04:14:42.197Z,50.63
2023-04-17T04:17:12.636Z,59.33
2023-04-17T04:19:42.830Z,64.03
2023-04-17T04:22:13.633Z,62.08
2023-04-17T04:24:53.727Z,60.85
2023-04-17T04:27:27.723Z,60.25
2023-04-17T04:29:58.877Z,63.40
2023-04-17T04:32:30.051Z,67.95
2023-04-17T04:34:58.499Z,74.95
2023-04-17T04:37:29.898Z,61.40
2023-04-17T04:40:10.704Z,71.07
2023-04-17T04:42:43.034Z,68.30
2023-04-17T04:45:15.574Z,63.53
2023-04-17T04:47:46.754Z,61.17
2023-04-17T04:50:14.911Z,70.35
2023-04-17T04:52:42.981Z,69.43
2023-04-17T04:55:24.508Z,69.20
2023-04-17T04:57:54.490Z,65.38
2023-04-17T05:00:24.921Z,65.13
2023-04-17T05:02:57.299Z,63.58
2023-04-17T05:05:27.125Z,61.67
2023-04-17T05:07:55.830Z,67.38
2023-04-17T05:10:27.394Z,58.75
2023-04-17T05:13:00.580Z,66.05
2023-04-17T05:15:28.677Z,67.78
2023-04-17T05:17:58.606Z,65.15
2023-04-17T05:20:29.023Z,68.10
2023-04-17T05:22:59.248Z,62.90
2023-04-17T05:25:27.308Z,64.57
2023-04-17T05:27:57.812Z,62.28
2023-04-17T05:30:25.947Z,61.00
2023-04-17T05:33:06.878Z,66.88
2023-04-17T05:35:44.132Z,58.10
2023-04-17T05:38:12.212Z,58.50
2023-04-17T05:40:40.300Z,58.35
2023-04-17T05:43:09.437Z,71.72
2023-04-17T05:45:38.361Z,62.28
2023-04-17T05:48:11.036Z,59.50
2023-04-17T05:50:39.270Z,69.45
2023-04-17T05:53:08.704Z,66.75
2023-04-17T05:55:43.519Z,64.50
2023-04-17T06:00:45.742Z,58.15
2023-04-17T06:03:18.717Z,57.42
2023-04-17T06:05:48.558Z,56.83
2023-04-17T06:08:17.268Z,58.70
2023-04-17T06:10:46.628Z,55.38
2023-04-17T06:13:14.748Z,60.92
2023-04-17T06:15:46.903Z,60.22
2023-04-17T06:18:17.879Z,50.83
2023-04-17T06:20:46.181Z,51.85
2023-04-17T06:23:14.322Z,57.85
2023-04-17T06:25:43.371Z,58.63
2023-04-17T06:28:11.449Z,55.50
2023-04-17T06:30:39.689Z,54.10
2023-04-17T06:33:08.732Z,53.75
2023-04-17T06:35:39.010Z,52.40
2023-04-17T06:38:18.122Z,56.30
2023-04-17T06:40:46.722Z,47.70
2023-04-17T06:43:16.907Z,58.85
2023-04-17T06:45:45.011Z,53.13
2023-04-17T06:48:13.039Z,49.90
2023-04-17T06:50:42.461Z,52.80
2023-04-17T06:53:10.576Z,50.05
2023-04-17T06:55:38.607Z,48.55
2023-04-17T06:58:08.854Z,51.78
2023-04-17T07:00:36.903Z,46.85
2023-04-17T07:03:05.844Z,46.50
2023-04-17T07:05:34.097Z,50.13
2023-04-17T07:08:03.551Z,48.00
2023-04-17T07:10:31.565Z,47.38
2023-04-17T07:12:59.586Z,39.72
2023-04-17T07:15:30.544Z,42.95
2023-04-17T07:17:58.707Z,42.63
2023-04-17T07:20:26.890Z,41.47
2023-04-17T07:22:55.515Z,41.90
2023-04-17T07:25:25.220Z,39.45
2023-04-17T07:27:54.591Z,44.17
2023-04-17T07:30:22.687Z,42.47
2023-04-17T07:32:50.782Z,39.45
2023-04-17T07:35:18.929Z,39.58
2023-04-17T07:37:47.092Z,38.92
2023-04-17T07:40:15.325Z,42.65
2023-04-17T07:42:44.833Z,38.92
2023-04-17T07:45:13.074Z,36.58
2023-04-17T07:47:41.145Z,36.35
2023-04-17T07:50:10.059Z,36.38
2023-04-17T07:52:38.139Z,38.00
2023-04-17T07:55:07.252Z,35.08
2023-04-17T07:57:35.493Z,36.20
2023-04-17T08:00:09.146Z,31.83
2023-04-17T08:02:42.051Z,33.13
2023-04-17T08:05:11.231Z,34.58
2023-04-17T08:07:40.182Z,33.50
2023-04-17T08:10:09.027Z,36.55
2023-04-17T08:12:37.028Z,36.25
2023-04-17T08:15:07.620Z,30.58
2023-04-17T08:17:35.888Z,31.65
2023-04-17T08:20:10.964Z,33.25
2023-04-17T08:22:42.935Z,31.45
2023-04-17T08:25:11.871Z,34.05
2023-04-17T08:27:41.438Z,33.20
2023-04-17T08:30:16.154Z,29.88
2023-04-17T08:32:47.383Z,29.58
2023-04-17T08:35:17.269Z,30.75
2023-04-17T08:37:46.887Z,28.40
2023-04-17T08:40:17.145Z,26.75
2023-04-17T08:42:47.803Z,30.23
2023-04-17T08:45:18.408Z,28.23
2023-04-17T08:47:46.595Z,27.20
2023-04-17T08:50:16.732Z,27.30
2023-04-17T08:52:46.561Z,27.55
2023-04-17T08:55:16.209Z,27.15
2023-04-17T08:57:55.630Z,31.50
2023-04-17T09:00:32.879Z,27.58
2023-04-17T09:03:03.732Z,29.42
2023-04-17T09:05:34.212Z,24.08
2023-04-17T09:08:13.445Z,25.88
2023-04-17T09:10:42.963Z,24.70
2023-04-17T09:13:14.396Z,24.92
2023-04-17T09:15:44.972Z,22.75
2023-04-17T09:18:31.767Z,24.55
2023-04-17T09:21:01.231Z,23.27
2023-04-17T09:23:30.793Z,23.77
2023-04-17T09:26:08.936Z,23.00
2023-04-17T09:28:39.566Z,22.85
2023-04-17T09:31:26.438Z,23.90
2023-04-17T09:33:59.006Z,22.50
2023-04-17T09:36:30.451Z,25.67
2023-04-17T09:38:59.507Z,22.05
2023-04-17T09:41:29.153Z,22.30
2023-04-17T09:44:01.068Z,23.85
2023-04-17T09:46:39.235Z,22.63
2023-04-17T09:49:11.920Z,23.85
2023-04-17T09:51:40.933Z,20.25
2023-04-17T09:54:11.760Z,24.20
2023-04-17T09:56:41.344Z,21.50
2023-04-17T09:59:11.303Z,22.33
2023-04-17T10:01:41.176Z,25.02
2023-04-17T10:04:09.831Z,19.45
2023-04-17T10:06:38.609Z,22.23
2023-04-17T10:09:08.165Z,19.23
2023-04-17T10:11:39.460Z,18.73
2023-04-17T10:14:15.141Z,22.83
2023-04-17T10:16:44.931Z,22.27
2023-04-17T10:19:30.429Z,24.67
2023-04-17T10:22:34.097Z,24.33
2023-04-17T10:25:23.551Z,18.85
2023-04-17T10:27:58.404Z,22.00
2023-04-17T10:30:47.170Z,19.67
2023-04-17T10:33:27.321Z,24.00
2023-04-17T10:35:55.898Z,20.42
2023-04-17T10:38:35.209Z,19.75
2023-04-17T10:41:05.185Z,19.83
2023-04-17T10:43:33.455Z,20.38
2023-04-17T10:46:06.638Z,23.02
2023-04-17T10:48:40.887Z,22.40
2023-04-17T10:51:43.833Z,18.85
2023-04-17T10:54:15.470Z,25.15
2023-04-17T10:56:46.233Z,20.05
2023-04-17T10:59:15.902Z,20.85
2023-04-17T11:02:01.143Z,20.30
2023-04-17T11:04:33.847Z,23.35
2023-04-17T11:07:02.617Z,23.80
2023-04-17T11:09:31.320Z,21.48
2023-04-17T11:12:03.084Z,22.15
2023-04-17T11:14:32.424Z,20.85
2023-04-17T11:17:02.258Z,20.45
2023-04-17T11:19:33.786Z,20.33
2023-04-17T11:22:02.913Z,20.83
2023-04-17T11:24:32.382Z,21.23
2023-04-17T11:27:03.881Z,20.52
2023-04-17T11:29:32.443Z,18.80
2023-04-17T11:32:01.465Z,20.20
2023-04-17T11:34:31.470Z,18.63
2023-04-17T11:37:04.474Z,21.83
2023-04-17T11:39:35.550Z,21.90
2023-04-17T11:42:09.477Z,19.17
2023-04-17T11:44:40.177Z,18.40
2023-04-17T11:47:12.986Z,25.80
2023-04-17T11:49:42.785Z,22.17
2023-04-17T11:52:11.916Z,20.23
2023-04-17T11:54:41.244Z,18.00
2023-04-17T11:57:14.037Z,19.13
2023-04-17T11:59:44.869Z,19.73
2023-04-17T12:02:13.529Z,19.25
2023-04-17T12:04:43.433Z,21.58
2023-04-17T12:07:24.009Z,20.75
2023-04-17T12:09:56.452Z,17.80
2023-04-17T12:12:24.757Z,19.63
2023-04-17T12:14:53.044Z,19.35
2023-04-17T12:17:21.841Z,17.42
2023-04-17T12:19:52.088Z,17.95
2023-04-17T12:22:20.949Z,18.80
2023-04-17T12:24:49.306Z,19.10
2023-04-17T12:27:17.564Z,18.83
2023-04-17T12:29:46.082Z,21.30
2023-04-17T12:32:16.069Z,17.42
2023-04-17T12:34:44.441Z,18.08
2023-04-17T12:37:14.108Z,19.35
2023-04-17T12:39:42.392Z,20.35
2023-04-17T12:42:10.680Z,16.45
2023-04-17T12:44:39.841Z,19.77
2023-04-17T12:47:08.250Z,16.83
2023-04-17T12:49:36.562Z,16.25
2023-04-17T12:52:04.988Z,19.58
2023-04-17T12:54:34.707Z,19.52
2023-04-17T12:57:03.519Z,15.55
2023-04-17T12:59:31.868Z,14.68
2023-04-17T13:02:00.236Z,16.83
2023-04-17T13:04:28.734Z,15.07
2023-04-17T13:06:57.175Z,15.02
2023-04-17T13:09:25.432Z,15.23
2023-04-17T13:11:55.069Z,13.07
2023-04-17T13:14:23.364Z,15.32
2023-04-17T13:16:51.709Z,13.05
2023-04-17T13:19:20.173Z,12.68
2023-04-17T13:21:48.599Z,13.80
2023-04-17T13:24:16.960Z,15.10
2023-04-17T13:26:45.366Z,13.68
2023-04-17T13:29:17.764Z,11.98
2023-04-17T13:31:47.526Z,13.68
2023-04-17T13:34:15.929Z,14.35
2023-04-17T13:36:45.117Z,13.43
2023-04-17T13:39:13.751Z,12.68
2023-04-17T13:41:42.251Z,15.98
2023-04-17T13:44:10.607Z,12.73
2023-04-17T13:46:40.325Z,12.32
2023-04-17T13:49:08.645Z,14.00
2023-04-17T13:51:37.004Z,11.52
2023-04-17T13:54:06.696Z,16.25
2023-04-17T13:56:35.123Z,15.25
2023-04-17T13:59:04.631Z,14.52
2023-04-17T14:01:33.096Z,13.77
2023-04-17T14:04:02.909Z,15.10
2023-04-17T14:06:33.328Z,15.32
2023-04-17T14:09:01.732Z,13.00
2023-04-17T14:11:30.214Z,11.85
2023-04-17T14:13:58.640Z,12.02
2023-04-17T14:16:27.663Z,10.50
2023-04-17T14:18:57.902Z,12.93
2023-04-17T14:21:30.925Z,12.43
2023-04-17T14:23:59.267Z,11.57
2023-04-17T14:26:27.619Z,12.10
2023-04-17T14:28:55.895Z,12.68
2023-04-17T14:31:24.306Z,12.98
2023-04-17T14:33:52.645Z,11.73
2023-04-17T14:36:20.976Z,10.88
2023-04-17T14:38:51.356Z,12.25
2023-04-17T14:41:19.932Z,13.07
2023-04-17T14:43:48.213Z,10.85
2023-04-17T14:46:16.710Z,11.05
2023-04-17T14:48:54.902Z,10.85
2023-04-17T14:51:24.156Z,10.45
2023-04-17T14:53:54.052Z,11.25
2023-04-17T14:56:22.710Z,12.15
2023-04-17T14:58:51.084Z,13.55
2023-04-17T15:01:19.428Z,13.02
2023-04-17T15:03:48.835Z,11.85
2023-04-17T15:06:18.716Z,13.93
2023-04-17T15:08:47.257Z,14.32
2023-04-17T15:11:17.229Z,14.30
2023-04-17T15:13:45.506Z,12.65
2023-04-17T15:16:13.996Z,14.27
2023-04-17T15:18:42.255Z,13.18
2023-04-17T15:21:10.846Z,12.60
2023-04-17T15:23:39.330Z,14.40
2023-04-17T15:26:07.622Z,15.82
2023-04-17T15:28:37.657Z,16.23
2023-04-17T15:31:05.995Z,16.00
2023-04-17T15:33:34.332Z,17.15
2023-04-17T15:36:02.831Z,16.02
2023-04-17T15:38:31.124Z,17.13
2023-04-17T15:40:59.432Z,17.40
2023-04-17T15:43:28.135Z,16.93
2023-04-17T15:45:59.111Z,17.92
2023-04-17T15:48:27.612Z,16.58
2023-04-17T15:50:55.984Z,17.63
2023-04-17T15:53:24.043Z,17.58
2023-04-17T15:55:53.692Z,17.58
2023-04-17T15:58:21.708Z,17.90
2023-04-17T16:00:49.767Z,17.73
2023-04-17T16:03:19.284Z,18.27
2023-04-17T16:05:47.386Z,17.33
2023-04-17T16:08:15.395Z,18.98
2023-04-17T16:10:43.409Z,19.02
2023-04-17T16:13:11.426Z,17.55
2023-04-17T16:15:39.499Z,24.20
2023-04-17T16:18:08.014Z,20.05
2023-04-17T16:20:39.069Z,18.67
2023-04-17T16:23:07.187Z,19.92
2023-04-17T16:25:35.202Z,22.35
2023-04-17T16:28:03.360Z,20.08
2023-04-17T16:30:33.530Z,18.77
2023-04-17T16:36:45.376Z,20.90
2023-04-17T16:39:13.934Z,22.55
2023-04-17T16:41:42.341Z,22.17
2023-04-17T16:44:10.479Z,20.73
2023-04-17T16:49:11.498Z,20.55
2023-04-17T16:51:39.816Z,19.33
2023-04-17T16:54:09.232Z,25.60
2023-04-17T16:56:37.271Z,20.88
2023-04-17T16:59:05.671Z,21.40
2023-04-17T17:01:33.811Z,21.20
2023-04-17T17:04:02.048Z,22.70
2023-04-17T17:06:30.221Z,20.35
2023-04-17T17:08:59.707Z,20.52
2023-04-17T17:11:29.113Z,22.75
2023-04-17T17:13:57.832Z,24.00
2023-04-17T17:16:26.266Z,25.05
2023-04-17T17:18:54.400Z,25.02
2023-04-17T17:21:22.421Z,24.33
2023-04-17T17:23:50.463Z,24.50
2023-04-17T17:26:18.469Z,23.75
2023-04-17T17:28:51.354Z,22.70
2023-04-17T17:31:19.732Z,22.77
2023-04-17T17:33:50.034Z,22.85
2023-04-17T17:36:18.563Z,21.98
2023-04-17T17:38:46.824Z,21.45
2023-04-17T17:41:14.923Z,20.67
2023-04-17T17:43:43.114Z,19.90
2023-04-17T17:46:12.602Z,21.75
2023-04-17T17:48:41.127Z,19.98
2023-04-17T17:51:09.435Z,19.17
2023-04-17T17:53:37.495Z,19.45
2023-04-17T17:56:06.077Z,17.88
2023-04-17T17:58:34.164Z,16.77
2023-04-17T18:01:02.616Z,18.50
2023-04-17T18:03:34.243Z,19.75
2023-04-17T18:06:02.475Z,17.48
2023-04-17T18:08:35.909Z,15.60
2023-04-17T18:11:03.985Z,16.50
2023-04-17T18:13:32.587Z,16.63
2023-04-17T18:16:03.868Z,15.48
2023-04-17T18:18:33.421Z,23.75
2023-04-17T18:21:01.485Z,16.17
2023-04-17T18:23:29.569Z,19.42
2023-04-17T18:25:58.855Z,17.80
2023-04-17T18:28:27.060Z,18.92
2023-04-17T18:30:55.465Z,16.27
2023-04-17T18:33:23.645Z,17.67
2023-04-17T18:35:53.079Z,17.48
2023-04-17T18:38:21.386Z,18.92
2023-04-17T18:40:53.920Z,16.73
2023-04-17T18:43:21.969Z,21.10
2023-04-17T18:45:50.065Z,17.17
2023-04-17T18:48:18.151Z,18.77
2023-04-17T18:50:46.230Z,16.45
2023-04-17T18:53:15.683Z,18.27
2023-04-17T18:55:43.694Z,19.77
2023-04-17T18:58:11.754Z,17.67
2023-04-17T19:00:39.789Z,16.45
2023-04-17T19:03:07.933Z,16.13
2023-04-17T19:05:36.151Z,20.55
2023-04-17T19:08:04.304Z,17.95
2023-04-17T19:10:33.778Z,20.15
2023-04-17T19:13:01.770Z,20.35
2023-04-17T19:15:29.844Z,15.07
2023-04-17T19:17:57.953Z,18.35
2023-04-17T19:20:26.040Z,19.70
2023-04-17T19:22:54.397Z,19.67
2023-04-17T19:25:22.417Z,17.85
2023-04-17T19:27:51.968Z,17.98
2023-04-17T19:30:20.073Z,19.00
2023-04-17T19:32:48.190Z,19.20
2023-04-17T19:35:16.260Z,16.00
2023-04-17T19:37:44.344Z,20.42
2023-04-17T19:40:24.260Z,20.23
2023-04-17T19:42:56.202Z,17.08
2023-04-17T19:45:24.269Z,19.60
2023-04-17T19:47:56.258Z,18.13
2023-04-17T19:50:25.297Z,19.40
2023-04-17T19:52:53.436Z,16.08
2023-04-17T19:55:21.834Z,19.00
2023-04-17T19:57:51.075Z,16.67
2023-04-17T20:00:21.121Z,18.77
2023-04-17T20:02:49.355Z,17.60
2023-04-17T20:05:18.474Z,16.75
2023-04-17T20:07:46.572Z,20.67
2023-04-17T20:10:14.751Z,16.83
2023-04-17T20:12:42.772Z,18.83
2023-04-17T20:15:11.824Z,18.50
2023-04-17T20:17:41.280Z,17.17
2023-04-17T20:20:10.294Z,17.98
2023-04-17T20:22:39.637Z,19.67
2023-04-17T20:25:08.274Z,18.27
2023-04-17T20:27:36.329Z,18.58
2023-04-17T20:30:04.728Z,18.63
2023-04-17T20:32:32.801Z,19.33
2023-04-17T20:35:02.906Z,18.70
2023-04-17T20:37:30.973Z,16.48
2023-04-17T20:39:58.999Z,18.45
2023-04-17T20:42:27.019Z,17.60
2023-04-17T20:44:55.320Z,17.95
2023-04-17T20:47:23.360Z,20.73
2023-04-17T20:49:53.018Z,19.35
2023-04-17T20:52:22.423Z,21.02
2023-04-17T20:54:50.440Z,18.98
2023-04-17T20:57:18.475Z,17.92
2023-04-17T20:59:46.813Z,17.73
2023-04-17T21:02:16.238Z,21.73
2023-04-17T21:04:45.190Z,16.98
2023-04-17T21:07:13.413Z,20.10
2023-04-17T21:09:42.955Z,18.20
2023-04-17T21:12:11.051Z,22.23
2023-04-17T21:14:40.062Z,19.88
2023-04-17T21:17:09.410Z,17.45
2023-04-17T21:19:37.787Z,20.27
2023-04-17T21:22:05.824Z,19.95
2023-04-17T21:24:34.340Z,16.85
2023-04-17T21:27:04.247Z,18.65
2023-04-17T21:29:32.338Z,19.67
2023-04-17T21:32:00.509Z,18.90
2023-04-17T21:34:28.682Z,20.55
2023-04-17T21:36:56.780Z,20.77
2023-04-17T21:39:24.829Z,20.42
2023-04-17T21:41:52.926Z,19.75
2023-04-17T21:44:22.330Z,21.75
2023-04-17T21:46:50.531Z,19.67
2023-04-17T21:49:18.630Z,19.40
2023-04-17T21:51:46.667Z,21.98
2023-04-17T21:54:14.876Z,20.27
2023-04-17T21:56:43.034Z,22.50
2023-04-17T21:59:11.070Z,18.10
2023-04-17T22:01:40.543Z,19.25
2023-04-17T22:04:08.747Z,19.20
2023-04-17T22:06:37.178Z,20.45
2023-04-17T22:09:05.276Z,21.17
2023-04-17T22:11:33.400Z,19.38
2023-04-17T22:14:01.473Z,19.63
2023-04-17T22:16:29.557Z,19.05
2023-04-17T22:18:59.027Z,21.15
2023-04-17T22:21:27.330Z,21.95
2023-04-17T22:23:55.425Z,18.48
2023-04-17T22:26:23.644Z,18.38
2023-04-17T22:28:51.685Z,18.10
2023-04-17T22:31:21.088Z,22.33
2023-04-17T22:33:49.193Z,21.38
2023-04-17T22:36:18.650Z,19.73
2023-04-17T22:38:46.751Z,17.42
2023-04-17T22:41:17.524Z,21.10
2023-04-17T22:43:49.046Z,21.23
2023-04-17T22:46:17.377Z,22.67
2023-04-17T22:48:45.675Z,20.27
2023-04-17T22:51:15.108Z,20.70
2023-04-17T22:53:44.630Z,20.83
2023-04-17T22:56:13.799Z,20.60
2023-04-17T22:58:42.016Z,19.65
2023-04-17T23:01:13.405Z,20.67
2023-04-17T23:03:41.732Z,21.92
2023-04-17T23:06:11.272Z,21.98
2023-04-17T23:08:39.379Z,19.80
2023-04-17T23:11:10.547Z,19.80
2023-04-17T23:13:38.666Z,21.77
2023-04-17T23:16:07.612Z,20.17
2023-04-17T23:18:37.160Z,19.00
2023-04-17T23:21:05.540Z,19.80
2023-04-17T23:23:33.630Z,19.48
2023-04-17T23:26:01.715Z,18.10
2023-04-17T23:28:31.467Z,18.48
2023-04-17T23:30:59.672Z,16.95
2023-04-17T23:33:27.841Z,17.25
2023-04-17T23:35:55.954Z,18.33
2023-04-17T23:38:24.145Z,19.38
2023-04-17T23:40:52.315Z,21.67
2023-04-17T23:43:20.410Z,21.27
2023-04-17T23:45:49.899Z,21.13
2023-04-17T23:48:17.985Z,18.77
2023-04-17T23:50:46.265Z,22.38
2023-04-17T23:53:14.547Z,18.63
2023-04-17T23:55:42.634Z,17.27
2023-04-17T23:58:10.729Z,16.45
